createdAt,value
2022-11-27T00:00:42.041Z,92.33
2022-11-27T00:03:10.888Z,93.11
2022-11-27T00:05:45.615Z,93.17
2022-11-27T00:08:14.300Z,93.26
2022-11-27T00:10:44.880Z,92.41
2022-11-27T00:13:13.549Z,92.42
2022-11-27T00:15:44.252Z,93.36
2022-11-27T00:18:13.525Z,93.38
2022-11-27T00:20:48.155Z,93.31
2022-11-27T00:23:16.783Z,93.37
2022-11-27T00:25:54.365Z,93.31
2022-11-27T00:28:23.124Z,93.49
2022-11-27T00:30:51.859Z,93.37
2022-11-27T00:33:20.659Z,93.01
2022-11-27T00:35:49.355Z,93.19
2022-11-27T00:38:19.724Z,94.01
2022-11-27T00:40:49.059Z,93.93
2022-11-27T00:43:19.887Z,93.47
2022-11-27T00:45:51.115Z,93.66
2022-11-27T00:48:19.745Z,93.72
2022-11-27T00:50:48.427Z,94.21
2022-11-27T00:53:17.114Z,94.00
2022-11-27T00:55:47.962Z,93.81
2022-11-27T00:58:16.665Z,93.42
2022-11-27T01:00:47.744Z,93.89
2022-11-27T01:03:16.646Z,93.50
2022-11-27T01:05:45.413Z,93.95
2022-11-27T01:08:14.092Z,92.95
2022-11-27T01:10:54.451Z,93.11
2022-11-27T01:13:28.763Z,93.86
2022-11-27T01:16:04.574Z,93.05
2022-11-27T01:18:34.921Z,93.35
2022-11-27T01:21:05.223Z,92.95
2022-11-27T01:23:34.403Z,93.28
2022-11-27T01:26:03.865Z,93.33
2022-11-27T01:28:32.867Z,92.55
2022-11-27T01:31:07.167Z,93.77
2022-11-27T01:33:36.171Z,93.48
2022-11-27T01:36:07.950Z,93.60
2022-11-27T01:38:37.638Z,93.60
2022-11-27T01:41:10.481Z,93.21
2022-11-27T01:43:43.382Z,92.52
2022-11-27T01:46:32.739Z,91.95
2022-11-27T01:49:26.431Z,92.52
2022-11-27T01:52:00.995Z,92.20
2022-11-27T01:54:34.679Z,91.60
2022-11-27T01:57:09.382Z,92.00
2022-11-27T01:59:37.994Z,92.16
2022-11-27T02:02:08.620Z,91.68
2022-11-27T02:04:37.507Z,92.10
2022-11-27T02:07:06.534Z,91.26
2022-11-27T02:09:35.877Z,91.66
2022-11-27T02:12:26.564Z,91.96
2022-11-27T02:15:04.617Z,91.48
2022-11-27T02:17:42.619Z,91.39
2022-11-27T02:20:39.169Z,91.86
2022-11-27T02:23:47.182Z,91.52
2022-11-27T02:26:39.705Z,91.68
2022-11-27T02:29:12.591Z,91.53
2022-11-27T02:31:48.513Z,91.54
2022-11-27T02:34:29.490Z,91.75
2022-11-27T02:37:11.197Z,91.84
2022-11-27T02:39:48.699Z,91.53
2022-11-27T02:42:21.934Z,91.13
2022-11-27T02:45:00.083Z,91.43
2022-11-27T02:47:32.002Z,90.82
2022-11-27T02:50:01.813Z,91.74
2022-11-27T02:52:33.080Z,91.38
2022-11-27T02:55:06.808Z,91.07
2022-11-27T02:57:38.486Z,90.92
2022-11-27T03:00:12.102Z,91.16
2022-11-27T03:02:46.112Z,91.17
2022-11-27T03:05:20.374Z,91.51
2022-11-27T03:07:54.615Z,90.58
2022-11-27T03:10:30.695Z,90.36
2022-11-27T03:13:00.456Z,90.93
2022-11-27T03:15:41.099Z,90.75
2022-11-27T03:18:19.492Z,90.77
2022-11-27T03:20:57.941Z,90.65
2022-11-27T03:23:26.564Z,90.35
2022-11-27T03:25:55.509Z,91.32
2022-11-27T03:28:24.709Z,91.31
2022-11-27T03:30:57.172Z,90.40
2022-11-27T03:33:26.051Z,90.53
2022-11-27T03:35:54.784Z,90.78
2022-11-27T03:38:23.530Z,90.04
2022-11-27T03:40:59.839Z,90.42
2022-11-27T03:43:35.781Z,90.50
2022-11-27T03:46:12.498Z,90.19
2022-11-27T03:48:51.693Z,90.19
2022-11-27T03:51:27.411Z,90.50
2022-11-27T03:54:06.166Z,89.94
2022-11-27T03:56:42.304Z,89.42
2022-11-27T03:59:16.045Z,89.37
2022-11-27T04:01:47.088Z,89.74
2022-11-27T04:04:16.557Z,89.56
2022-11-27T04:06:45.235Z,89.80
2022-11-27T04:09:13.895Z,89.77
2022-11-27T04:11:42.525Z,89.37
2022-11-27T04:14:11.375Z,90.14
2022-11-27T04:16:40.008Z,89.48
2022-11-27T04:19:10.691Z,90.10
2022-11-27T04:21:39.337Z,89.51
2022-11-27T04:24:08.583Z,89.87
2022-11-27T04:26:37.216Z,89.09
2022-11-27T04:29:05.938Z,88.41
2022-11-27T04:31:34.639Z,88.79
2022-11-27T04:34:03.379Z,88.42
2022-11-27T04:36:39.017Z,88.66
2022-11-27T04:39:08.146Z,88.10
2022-11-27T04:41:36.812Z,88.59
2022-11-27T04:44:06.289Z,89.46
2022-11-27T04:46:35.119Z,89.43
2022-11-27T04:49:03.972Z,88.76
2022-11-27T04:51:35.229Z,88.44
2022-11-27T04:54:04.019Z,88.83
2022-11-27T04:56:32.812Z,88.55
2022-11-27T04:59:01.442Z,88.17
2022-11-27T05:01:30.178Z,88.23
2022-11-27T05:03:58.827Z,88.74
2022-11-27T05:06:27.566Z,88.67
2022-11-27T05:09:01.329Z,89.03
2022-11-27T05:11:31.462Z,88.94
2022-11-27T05:14:13.267Z,88.12
2022-11-27T05:16:42.034Z,88.26
2022-11-27T05:19:11.272Z,88.19
2022-11-27T05:21:40.332Z,88.03
2022-11-27T05:24:12.145Z,88.42
2022-11-27T05:26:42.271Z,87.49
2022-11-27T05:29:12.859Z,88.31
2022-11-27T05:31:41.951Z,88.41
2022-11-27T05:34:11.362Z,88.35
2022-11-27T05:36:40.999Z,88.34
2022-11-27T05:39:12.951Z,89.50
2022-11-27T05:41:43.743Z,89.31
2022-11-27T05:44:14.600Z,89.90
2022-11-27T05:46:45.021Z,89.33
2022-11-27T05:49:16.965Z,89.77
2022-11-27T05:51:51.087Z,90.19
2022-11-27T05:54:22.028Z,90.29
2022-11-27T05:56:50.716Z,90.04
2022-11-27T05:59:19.559Z,90.48
2022-11-27T06:01:48.699Z,90.03
2022-11-27T06:04:17.332Z,90.55
2022-11-27T06:06:45.984Z,90.58
2022-11-27T06:09:14.740Z,90.66
2022-11-27T06:11:45.322Z,90.05
2022-11-27T06:14:14.006Z,90.79
2022-11-27T06:16:42.765Z,90.30
2022-11-27T06:19:11.504Z,91.04
2022-11-27T06:21:40.538Z,90.67
2022-11-27T06:24:09.434Z,90.70
2022-11-27T06:26:38.093Z,91.20
2022-11-27T06:29:08.753Z,91.28
2022-11-27T06:31:37.598Z,90.78
2022-11-27T06:34:07.505Z,91.31
2022-11-27T06:36:40.111Z,91.42
2022-11-27T06:39:12.209Z,90.94
2022-11-27T06:41:40.902Z,91.47
2022-11-27T06:44:12.199Z,91.56
2022-11-27T06:46:40.847Z,91.93
2022-11-27T06:49:09.498Z,92.27
2022-11-27T06:51:38.195Z,91.68
2022-11-27T06:54:07.120Z,91.61
2022-11-27T06:56:35.751Z,91.83
2022-11-27T06:59:04.399Z,92.30
2022-11-27T07:01:35.556Z,92.68
2022-11-27T07:04:04.199Z,92.79
2022-11-27T07:06:32.804Z,92.41
2022-11-27T07:09:01.476Z,93.21
2022-11-27T07:11:32.147Z,92.19
2022-11-27T07:14:03.347Z,93.02
2022-11-27T07:16:37.360Z,93.07
2022-11-27T07:19:08.558Z,92.96
2022-11-27T07:21:39.408Z,93.00
2022-11-27T07:24:09.526Z,92.89
2022-11-27T07:26:38.171Z,93.92
2022-11-27T07:29:06.778Z,93.49
2022-11-27T07:31:37.493Z,93.33
2022-11-27T07:34:11.702Z,93.84
2022-11-27T07:36:42.838Z,94.14
2022-11-27T07:39:11.551Z,93.16
2022-11-27T07:41:40.160Z,93.90
2022-11-27T07:44:08.851Z,93.74
2022-11-27T07:46:39.444Z,94.15
2022-11-27T07:49:07.999Z,93.74
2022-11-27T07:51:36.571Z,94.24
2022-11-27T07:54:05.706Z,94.47
2022-11-27T07:56:34.560Z,94.12
2022-11-27T07:59:03.156Z,94.05
2022-11-27T08:01:31.860Z,94.05
2022-11-27T08:04:02.556Z,93.68
2022-11-27T08:06:31.342Z,94.04
2022-11-27T08:08:59.943Z,93.89
2022-11-27T08:11:32.281Z,94.29
2022-11-27T08:14:03.114Z,94.06
2022-11-27T08:16:33.592Z,93.33
2022-11-27T08:19:04.643Z,94.50
2022-11-27T08:21:34.253Z,94.75
2022-11-27T08:24:02.934Z,93.65
2022-11-27T08:26:31.596Z,93.95
2022-11-27T08:29:00.247Z,94.77
2022-11-27T08:31:29.247Z,94.01
2022-11-27T08:33:58.464Z,94.12
2022-11-27T08:36:29.417Z,94.58
2022-11-27T08:38:58.589Z,93.64
2022-11-27T08:41:27.225Z,94.76
2022-11-27T08:43:55.884Z,94.66
2022-11-27T08:46:26.416Z,94.77
2022-11-27T08:48:55.012Z,95.03
2022-11-27T08:51:23.571Z,94.37
2022-11-27T08:53:54.651Z,94.74
2022-11-27T08:56:26.012Z,94.75
2022-11-27T08:58:54.922Z,94.44
2022-11-27T09:01:26.159Z,94.61
2022-11-27T09:03:55.591Z,94.59
2022-11-27T09:06:27.506Z,94.27
2022-11-27T09:09:00.034Z,94.79
2022-11-27T09:11:31.416Z,95.11
2022-11-27T09:14:00.954Z,95.14
2022-11-27T09:16:29.952Z,94.76
2022-11-27T09:18:59.727Z,94.82
2022-11-27T09:21:31.239Z,95.50
2022-11-27T09:24:03.255Z,95.34
2022-11-27T09:26:32.631Z,95.15
2022-11-27T09:29:01.317Z,95.67
2022-11-27T09:31:30.051Z,95.87
2022-11-27T09:34:00.863Z,95.95
2022-11-27T09:36:29.492Z,95.20
2022-11-27T09:39:02.919Z,95.92
2022-11-27T09:41:48.328Z,94.94
2022-11-27T09:44:33.333Z,95.44
2022-11-27T09:47:11.563Z,95.20
2022-11-27T09:49:47.450Z,95.79
2022-11-27T09:52:25.043Z,96.28
2022-11-27T09:55:03.323Z,96.73
2022-11-27T09:57:39.104Z,96.75
2022-11-27T10:00:15.945Z,96.22
2022-11-27T10:02:45.594Z,96.83
2022-11-27T10:05:21.056Z,96.80
2022-11-27T10:08:18.955Z,96.65
2022-11-27T10:11:14.271Z,96.14
2022-11-27T10:14:22.155Z,96.23
2022-11-27T10:16:58.351Z,96.20
2022-11-27T10:19:37.311Z,96.10
2022-11-27T10:22:21.000Z,96.25
2022-11-27T10:25:04.409Z,96.62
2022-11-27T10:27:44.993Z,96.61
2022-11-27T10:30:18.979Z,97.29
2022-11-27T10:32:57.504Z,97.81
2022-11-27T10:35:29.222Z,96.62
2022-11-27T10:38:06.770Z,96.73
2022-11-27T10:40:42.342Z,96.70
2022-11-27T10:43:20.266Z,96.72
2022-11-27T10:45:54.370Z,97.27
2022-11-27T10:48:23.654Z,97.39
2022-11-27T10:50:52.954Z,96.78
2022-11-27T10:53:28.627Z,97.10
2022-11-27T10:56:22.831Z,96.73
2022-11-27T10:59:00.672Z,97.54
2022-11-27T11:01:43.717Z,97.06
2022-11-27T11:04:36.419Z,97.47
2022-11-27T11:07:04.088Z,96.97
2022-11-27T11:09:35.493Z,96.72
2022-11-27T11:12:16.819Z,96.72
2022-11-27T11:14:55.847Z,97.28
2022-11-27T11:17:28.164Z,97.24
2022-11-27T11:19:57.058Z,96.13
2022-11-27T11:22:26.151Z,96.62
2022-11-27T11:24:55.752Z,97.11
2022-11-27T11:27:30.630Z,96.98
2022-11-27T11:30:04.008Z,97.42
2022-11-27T11:32:36.559Z,97.75
2022-11-27T11:35:11.221Z,96.57
2022-11-27T11:37:46.187Z,96.48
2022-11-27T11:40:25.207Z,96.99
2022-11-27T11:42:57.468Z,97.64
2022-11-27T11:45:32.648Z,97.12
2022-11-27T11:48:05.948Z,96.20
2022-11-27T11:50:40.983Z,97.17
2022-11-27T11:53:19.800Z,96.83
2022-11-27T11:56:00.753Z,95.72
2022-11-27T11:58:49.784Z,96.45
2022-11-27T12:01:43.656Z,96.48
2022-11-27T12:04:43.285Z,95.82
2022-11-27T12:07:27.241Z,96.52
2022-11-27T12:10:05.928Z,96.57
2022-11-27T12:12:51.145Z,96.35
2022-11-27T12:15:27.869Z,95.41
2022-11-27T12:18:02.921Z,96.60
2022-11-27T12:20:48.996Z,96.30
2022-11-27T12:23:48.820Z,95.57
2022-11-27T12:26:30.580Z,96.32
2022-11-27T12:29:27.701Z,95.77
2022-11-27T12:32:25.355Z,95.27
2022-11-27T12:35:19.127Z,94.58
2022-11-27T12:38:02.339Z,94.60
2022-11-27T12:40:49.299Z,95.74
2022-11-27T12:43:26.110Z,95.47
2022-11-27T12:46:02.780Z,94.96
2022-11-27T12:48:38.171Z,94.39
2022-11-27T12:51:13.803Z,94.43
2022-11-27T12:53:47.671Z,94.68
2022-11-27T12:56:24.017Z,93.42
2022-11-27T12:58:58.987Z,93.65
2022-11-27T13:01:34.897Z,93.81
2022-11-27T13:04:19.724Z,93.55
2022-11-27T13:07:05.502Z,93.18
2022-11-27T13:09:47.136Z,92.79
2022-11-27T13:12:26.088Z,92.60
2022-11-27T13:15:02.789Z,92.46
2022-11-27T13:17:39.811Z,92.83
2022-11-27T13:20:19.410Z,92.22
2022-11-27T13:22:51.375Z,92.23
2022-11-27T13:25:20.039Z,91.60
2022-11-27T13:27:53.001Z,91.91
2022-11-27T13:30:25.552Z,92.15
2022-11-27T13:32:58.782Z,91.93
2022-11-27T13:35:31.499Z,91.16
2022-11-27T13:38:14.417Z,91.15
2022-11-27T13:40:46.051Z,91.63
2022-11-27T13:43:30.639Z,91.01
2022-11-27T13:46:06.063Z,91.05
2022-11-27T13:48:38.261Z,91.63
2022-11-27T13:51:09.624Z,90.91
2022-11-27T13:53:43.634Z,91.29
2022-11-27T13:56:12.282Z,89.90
2022-11-27T13:58:43.181Z,90.79
2022-11-27T14:04:56.147Z,92.05
2022-11-27T14:07:36.870Z,90.44
2022-11-27T14:10:13.519Z,90.89
2022-11-27T14:12:43.470Z,90.30
2022-11-27T14:15:25.450Z,90.50
2022-11-27T14:18:07.976Z,90.33
2022-11-27T14:20:48.309Z,89.72
2022-11-27T14:23:30.025Z,89.54
2022-11-27T14:26:14.680Z,90.06
2022-11-27T14:28:46.569Z,90.26
2022-11-27T14:31:29.076Z,89.36
2022-11-27T14:34:16.182Z,90.01
2022-11-27T14:36:47.451Z,90.61
2022-11-27T14:39:24.519Z,90.60
2022-11-27T14:42:01.943Z,90.06
2022-11-27T14:44:31.580Z,90.31
2022-11-27T14:47:04.146Z,91.07
2022-11-27T14:49:35.226Z,90.50
2022-11-27T14:52:14.009Z,91.31
2022-11-27T14:54:44.095Z,91.18
2022-11-27T14:57:25.509Z,91.28
2022-11-27T15:00:15.329Z,90.69
2022-11-27T15:02:44.281Z,91.01
2022-11-27T15:05:22.034Z,91.46
2022-11-27T15:07:55.438Z,91.24
2022-11-27T15:10:39.029Z,90.92
2022-11-27T15:13:21.137Z,90.59
2022-11-27T15:16:02.432Z,90.64
2022-11-27T15:18:33.806Z,91.55
2022-11-27T15:21:03.898Z,91.22
2022-11-27T15:23:35.848Z,92.04
2022-11-27T15:26:15.082Z,91.85
2022-11-27T15:28:56.579Z,90.86
2022-11-27T15:31:32.222Z,91.05
2022-11-27T15:34:06.927Z,91.10
2022-11-27T15:36:44.088Z,90.58
2022-11-27T15:39:22.924Z,91.08
2022-11-27T15:41:54.369Z,90.83
2022-11-27T15:44:23.357Z,91.25
2022-11-27T15:46:52.889Z,90.51
2022-11-27T15:49:22.796Z,91.05
2022-11-27T15:51:52.759Z,90.63
2022-11-27T15:54:23.342Z,90.72
2022-11-27T15:56:52.230Z,90.29
2022-11-27T16:02:01.267Z,90.21
2022-11-27T16:04:30.219Z,90.24
2022-11-27T16:06:58.980Z,90.95
2022-11-27T16:09:27.626Z,90.77
2022-11-27T16:11:56.418Z,91.05
2022-11-27T16:14:25.585Z,90.79
2022-11-27T16:16:54.268Z,91.27
2022-11-27T16:19:24.919Z,90.46
2022-11-27T16:21:53.569Z,90.51
2022-11-27T16:24:22.287Z,90.66
2022-11-27T16:26:53.598Z,90.15
2022-11-27T16:29:22.262Z,90.93
2022-11-27T16:31:50.920Z,90.65
2022-11-27T16:34:19.688Z,90.65
2022-11-27T16:36:50.275Z,91.29
2022-11-27T16:39:19.457Z,90.83
2022-11-27T16:41:48.171Z,90.20
2022-11-27T16:44:17.118Z,90.20
2022-11-27T16:46:45.790Z,90.60
2022-11-27T16:49:14.901Z,90.53
2022-11-27T16:51:44.042Z,89.89
2022-11-27T16:54:15.667Z,90.35
2022-11-27T16:56:44.675Z,90.50
2022-11-27T16:59:16.271Z,90.56
2022-11-27T17:01:45.073Z,90.18
2022-11-27T17:04:19.422Z,91.15
2022-11-27T17:06:49.917Z,90.98
2022-11-27T17:09:21.912Z,90.67
2022-11-27T17:11:50.380Z,90.67
2022-11-27T17:14:19.892Z,91.54
2022-11-27T17:16:49.098Z,91.36
2022-11-27T17:19:18.190Z,91.25
2022-11-27T17:21:47.300Z,90.78
2022-11-27T17:24:18.188Z,90.82
2022-11-27T17:26:50.034Z,91.37
2022-11-27T17:29:21.056Z,91.47
2022-11-27T17:31:50.120Z,91.52
2022-11-27T17:34:20.055Z,91.93
2022-11-27T17:36:53.127Z,91.78
2022-11-27T17:39:21.900Z,91.56
2022-11-27T17:41:52.526Z,91.23
2022-11-27T17:44:21.226Z,91.49
2022-11-27T17:46:50.172Z,91.95
2022-11-27T17:49:21.239Z,92.53
2022-11-27T17:51:49.790Z,92.23
2022-11-27T17:54:18.445Z,92.65
2022-11-27T17:56:50.599Z,92.90
2022-11-27T17:59:22.026Z,92.33
2022-11-27T18:01:52.534Z,92.06
2022-11-27T18:04:22.435Z,92.65
2022-11-27T18:06:51.105Z,93.23
2022-11-27T18:09:19.906Z,93.63
2022-11-27T18:11:48.466Z,92.88
2022-11-27T18:14:17.146Z,93.78
2022-11-27T18:16:47.883Z,93.20
2022-11-27T18:19:16.771Z,93.80
2022-11-27T18:21:45.400Z,94.32
2022-11-27T18:24:22.916Z,93.71
2022-11-27T18:27:07.662Z,94.29
2022-11-27T18:29:38.738Z,94.47
2022-11-27T18:32:10.098Z,94.98
2022-11-27T18:34:38.905Z,94.64
2022-11-27T18:37:08.249Z,94.95
2022-11-27T18:39:37.816Z,95.51
2022-11-27T18:42:07.685Z,95.18
2022-11-27T18:44:44.251Z,95.96
2022-11-27T18:47:16.628Z,95.63
2022-11-27T18:49:45.411Z,95.09
2022-11-27T18:52:15.693Z,95.52
2022-11-27T18:54:44.802Z,95.31
2022-11-27T18:57:13.585Z,95.94
2022-11-27T18:59:45.075Z,96.70
2022-11-27T19:02:16.944Z,96.00
2022-11-27T19:04:46.089Z,96.35
2022-11-27T19:07:14.805Z,96.12
2022-11-27T19:09:44.046Z,96.91
2022-11-27T19:12:13.288Z,96.66
2022-11-27T19:14:42.101Z,97.35
2022-11-27T19:17:10.883Z,97.45
2022-11-27T19:19:56.693Z,96.99
2022-11-27T19:22:25.412Z,97.47
2022-11-27T19:24:54.107Z,97.19
2022-11-27T19:27:22.769Z,97.70
2022-11-27T19:29:51.392Z,97.69
2022-11-27T19:32:20.010Z,97.68
2022-11-27T19:34:53.672Z,97.59
2022-11-27T19:37:34.215Z,97.84
2022-11-27T19:40:04.485Z,97.82
2022-11-27T19:42:33.799Z,97.04
2022-11-27T19:45:02.372Z,98.17
2022-11-27T19:47:30.948Z,97.47
2022-11-27T19:50:01.477Z,97.39
2022-11-27T19:52:30.076Z,98.47
2022-11-27T19:54:58.671Z,98.20
2022-11-27T19:57:27.745Z,98.22
2022-11-27T19:59:56.395Z,98.41
2022-11-27T20:02:25.108Z,97.48
2022-11-27T20:04:53.951Z,98.18
2022-11-27T20:07:24.706Z,98.69
2022-11-27T20:09:53.532Z,99.37
2022-11-27T20:12:22.127Z,98.79
2022-11-27T20:14:50.763Z,98.85
2022-11-27T20:17:19.385Z,98.91
2022-11-27T20:19:48.008Z,99.01
2022-11-27T20:22:16.655Z,98.66
2022-11-27T20:25:04.478Z,98.27
2022-11-27T20:27:37.861Z,98.21
2022-11-27T20:30:09.547Z,98.95
2022-11-27T20:32:38.300Z,99.01
2022-11-27T20:35:07.861Z,100.00
2022-11-27T20:37:37.398Z,99.37
2022-11-27T20:40:10.101Z,98.36
2022-11-27T20:42:38.715Z,99.56
2022-11-27T20:45:09.255Z,98.80
2022-11-27T20:47:37.893Z,99.24
2022-11-27T20:50:08.864Z,98.60
2022-11-27T20:52:37.467Z,98.32
2022-11-27T20:55:09.578Z,99.71
2022-11-27T20:57:38.267Z,98.52
2022-11-27T21:00:09.407Z,100.00
2022-11-27T21:02:43.112Z,98.80
2022-11-27T21:05:12.836Z,98.74
2022-11-27T21:07:43.717Z,99.06
2022-11-27T21:10:17.805Z,99.70
2022-11-27T21:12:46.413Z,99.46
2022-11-27T21:15:14.968Z,99.55
2022-11-27T21:17:43.568Z,98.44
2022-11-27T21:20:14.148Z,99.48
2022-11-27T21:22:43.495Z,99.18
2022-11-27T21:25:14.252Z,99.47
2022-11-27T21:27:42.808Z,99.64
2022-11-27T21:30:12.225Z,99.31
2022-11-27T21:32:40.852Z,99.90
2022-11-27T21:35:10.398Z,99.93
2022-11-27T21:37:39.072Z,99.96
2022-11-27T21:40:09.831Z,99.25
2022-11-27T21:42:44.351Z,99.70
2022-11-27T21:45:13.497Z,99.84
2022-11-27T21:47:42.120Z,99.60
2022-11-27T21:50:13.085Z,100.00
2022-11-27T21:52:41.863Z,100.00
2022-11-27T21:55:12.146Z,100.00
2022-11-27T21:57:42.922Z,99.50
2022-11-27T22:00:12.633Z,99.22
2022-11-27T22:02:41.532Z,99.94
2022-11-27T22:05:10.904Z,100.00
2022-11-27T22:07:39.757Z,99.89
2022-11-27T22:10:11.539Z,99.70
2022-11-27T22:12:42.105Z,100.00
2022-11-27T22:15:12.293Z,100.00
2022-11-27T22:17:40.902Z,99.50
2022-11-27T22:20:10.860Z,99.97
2022-11-27T22:22:39.430Z,100.00
2022-11-27T22:25:08.991Z,99.68
2022-11-27T22:27:37.583Z,99.74
2022-11-27T22:30:10.413Z,99.89
2022-11-27T22:32:39.011Z,99.88
2022-11-27T22:35:08.698Z,100.00
2022-11-27T22:37:37.247Z,99.55
2022-11-27T22:40:08.435Z,100.00
2022-11-27T22:42:37.535Z,100.00
2022-11-27T22:45:11.315Z,99.86
2022-11-27T22:47:39.923Z,100.00
2022-11-27T22:50:09.698Z,99.87
2022-11-27T22:52:38.274Z,99.05
2022-11-27T22:55:07.657Z,100.00
2022-11-27T22:57:36.280Z,99.76
2022-11-27T23:00:09.112Z,100.00
2022-11-27T23:02:39.491Z,99.92
2022-11-27T23:05:08.768Z,99.33
2022-11-27T23:07:37.420Z,99.97
2022-11-27T23:10:08.796Z,99.60
2022-11-27T23:12:37.490Z,100.00
2022-11-27T23:15:09.141Z,99.83
2022-11-27T23:17:37.763Z,99.97
2022-11-27T23:20:08.802Z,100.00
2022-11-27T23:22:37.549Z,100.00
2022-11-27T23:25:07.105Z,100.00
2022-11-27T23:27:35.730Z,99.74
2022-11-27T23:30:04.545Z,99.19
2022-11-27T23:32:38.804Z,100.00
2022-11-27T23:35:08.291Z,99.96
2022-11-27T23:37:36.891Z,99.88
2022-11-27T23:40:07.585Z,100.00
2022-11-27T23:42:36.470Z,99.96
2022-11-27T23:45:06.085Z,99.36
2022-11-27T23:47:34.699Z,100.00
2022-11-27T23:50:05.831Z,100.00
2022-11-27T23:52:34.731Z,99.41
2022-11-27T23:55:03.371Z,99.57
2022-11-27T23:57:31.967Z,100.00
